New Haven Heights, Indiana
Current Conditions -  °F | °C
As of 12:54 AM on Sunday 23 Nov 2014 (Local Time) from KFWA Reporting Station
Light Rain Light Rain  
Wind Chill: 42°   Ceiling: 8000
Heat Index: 46°   Visibility: 8mi
Dew Point: 42°   Wind: 8mph
Humidity: 86%   Direction: 200°SSW
Pressure: 29.98"   Gusts: NA
Location:  41.0925°N, 84.9712°W
Report Text: KFWA 230554Z 20007KT 8SM -RA FEW039 OVC080 08/06 A2998 RMK AO2 RAE0458B23 SLP154 P0001 60004 T00780056 10100 20078 58001
Loading
Personal Weather Stations






























Interactive Weather Map New forecast layout! Learn more

10-Day Weather Forecast

Advertisements
Track Severe Weather on mobile